Time;durP1;ratioP1;P1;durP2;ratioP2;P2;SDS_P1;SDS_P2;PMS_P1;PMS_P2;Temp;Humidity;BMP_temperature;BMP_pressure;BME280_temperature;BME280_humidity;BME280_pressure;Samples;Min_cycle;Max_cycle;Signal;HPM_P1;HPM_P2
2022/02/20 00:00:45;;;;;;;3.70;2.00;;;3.70;96.50;4.70;96948.00;;;;5110285;27;20419;-88
2022/02/20 00:03:34;;;;;;;2.20;1.90;;;3.70;96.20;4.80;96944.00;;;;5135983;28;20947;-90
2022/02/20 00:06:23;;;;;;;3.90;2.40;;;3.80;96.50;4.80;96938.00;;;;5137330;28;20508;-88
2022/02/20 00:09:12;;;;;;;4.33;1.80;;;3.80;96.40;4.90;96940.00;;;;5135354;28;20419;-88
2022/02/20 00:12:02;;;;;;;2.47;1.80;;;3.90;96.10;5.00;96930.00;;;;5135177;27;20420;-87
2022/02/20 00:14:51;;;;;;;2.87;1.90;;;3.90;96.40;5.00;96936.00;;;;5135320;27;20479;-88
2022/02/20 00:17:40;;;;;;;2.07;1.80;;;4.00;96.90;4.80;96931.00;;;;5115115;28;20861;-88
2022/02/20 00:20:30;;;;;;;4.77;2.00;;;4.00;96.90;4.80;96940.00;;;;5116071;28;20433;-88
2022/02/20 00:23:19;;;;;;;5.60;2.00;;;4.00;97.30;4.90;96941.00;;;;5114335;28;20447;-88
2022/02/20 00:26:08;;;;;;;4.73;2.20;;;3.90;97.60;4.90;96935.00;;;;5116384;28;20433;-88
2022/02/20 00:28:58;;;;;;;3.10;1.90;;;4.00;97.80;4.80;96940.00;;;;5115937;28;20428;-88
2022/02/20 00:31:47;;;;;;;5.00;2.97;;;3.90;98.20;4.90;96942.00;;;;5114232;28;20424;-88
2022/02/20 00:34:36;;;;;;;4.43;2.30;;;3.90;99.10;4.70;96942.00;;;;5115562;28;21020;-89
2022/02/20 00:37:25;;;;;;;3.07;2.40;;;3.90;99.00;4.70;96939.00;;;;5115092;28;20424;-89
2022/02/20 00:40:14;;;;;;;4.03;2.63;;;3.90;99.40;4.40;96933.00;;;;5115853;28;20964;-88
2022/02/20 00:43:04;;;;;;;5.03;3.03;;;3.80;99.50;4.30;96929.00;;;;5112865;28;20454;-88
2022/02/20 00:45:54;;;;;;;4.57;3.10;;;3.80;99.90;3.60;96910.00;;;;5121857;28;20960;-88
2022/02/20 00:48:43;;;;;;;3.03;2.77;;;3.60;99.90;3.60;96900.00;;;;5133039;28;20443;-89
2022/02/20 00:51:32;;;;;;;2.83;1.93;;;3.50;99.90;3.70;96902.00;;;;5123013;27;20436;-87
2022/02/20 00:54:21;;;;;;;3.30;2.40;;;3.40;99.90;4.10;96902.00;;;;5131642;27;20812;-89
2022/02/20 00:57:10;;;;;;;3.10;2.37;;;3.40;99.90;4.30;96915.00;;;;5136180;27;20468;-87
2022/02/20 00:59:58;;;;;;;3.30;1.97;;;3.40;99.90;4.30;96915.00;;;;5132834;27;20416;-89
2022/02/20 01:02:50;;;;;;;5.67;2.27;;;3.40;99.90;4.20;96921.00;;;;5127179;27;20434;-87
2022/02/20 01:05:38;;;;;;;6.13;2.87;;;3.40;99.90;4.20;96914.00;;;;5132390;27;20443;-88
2022/02/20 01:08:27;;;;;;;2.50;1.70;;;3.40;99.90;4.40;96914.00;;;;5131706;27;20415;-88
2022/02/20 01:11:16;;;;;;;3.27;2.17;;;3.50;99.90;4.40;96910.00;;;;5132176;27;20577;-87
2022/02/20 01:14:05;;;;;;;7.60;2.47;;;3.50;99.90;4.40;96914.00;;;;5131247;27;20459;-87
2022/02/20 01:16:55;;;;;;;2.33;1.73;;;3.50;99.90;4.50;96907.00;;;;5124406;27;20428;-88
2022/02/20 01:19:45;;;;;;;3.00;2.30;;;3.50;99.90;4.40;96903.00;;;;5124900;27;20784;-88
2022/02/20 01:22:34;;;;;;;4.53;2.67;;;3.60;99.90;4.20;96903.00;;;;5108873;27;20429;-89
2022/02/20 01:25:23;;;;;;;3.87;2.60;;;3.50;99.90;3.70;96886.00;;;;5100641;28;20440;-87
2022/02/20 01:28:12;;;;;;;3.50;1.77;;;3.40;99.90;4.10;96880.00;;;;5110112;28;20421;-89
2022/02/20 01:31:01;;;;;;;4.90;2.73;;;3.40;99.90;4.20;96888.00;;;;5110830;28;20433;-88
2022/02/20 01:33:50;;;;;;;4.03;2.70;;;3.40;99.90;4.10;96889.00;;;;5104681;28;20435;-88
2022/02/20 01:36:40;;;;;;;3.73;1.90;;;3.30;99.90;4.00;96887.00;;;;5135851;28;20419;-88
2022/02/20 01:39:30;;;;;;;3.37;2.73;;;3.30;99.90;3.60;96889.00;;;;5133237;28;20424;-88
2022/02/20 01:42:19;;;;;;;2.77;2.23;;;3.20;99.90;3.90;96877.00;;;;5099008;28;20430;-88
2022/02/20 01:45:13;;;;;;;4.53;2.50;;;3.20;99.90;4.00;96890.00;;;;5114485;27;20447;-87
2022/02/20 01:48:02;;;;;;;5.40;2.47;;;3.20;99.90;4.10;96879.00;;;;5130396;27;20430;-88
2022/02/20 01:50:51;;;;;;;6.07;2.77;;;3.20;99.90;4.10;96873.00;;;;5131114;27;20416;-87
2022/02/20 01:53:42;;;;;;;3.20;1.60;;;3.20;99.90;3.90;96884.00;;;;5129644;27;20420;-86
2022/02/20 01:56:31;;;;;;;2.13;2.00;;;3.30;99.90;3.90;96877.00;;;;5129354;27;20435;-87
2022/02/20 01:59:20;;;;;;;2.80;1.83;;;3.30;99.90;4.10;96880.00;;;;5130832;27;20439;-86
2022/02/20 02:02:09;;;;;;;1.87;1.77;;;3.30;99.90;4.20;96872.00;;;;5115854;27;20416;-86
2022/02/20 02:04:58;;;;;;;5.97;2.13;;;3.30;99.90;4.10;96865.00;;;;5131017;27;20451;-87
2022/02/20 02:07:47;;;;;;;3.63;2.20;;;3.40;99.90;4.30;96874.00;;;;5131414;27;20427;-88
2022/02/20 02:10:38;;;;;;;3.67;1.90;;;3.40;99.90;4.20;96852.00;;;;5131587;27;20821;-88
2022/02/20 02:13:27;;;;;;;5.77;2.53;;;3.40;99.90;4.40;96871.00;;;;5129243;27;20889;-87
2022/02/20 02:16:16;;;;;;;3.47;2.13;;;3.50;99.90;4.40;96869.00;;;;5128943;27;20471;-87
2022/02/20 02:19:05;;;;;;;3.73;2.30;;;3.50;99.90;4.30;96863.00;;;;5129110;27;20424;-88
2022/02/20 02:21:59;;;;;;;1.87;1.73;;;3.50;99.90;4.30;96862.00;;;;5105811;27;21016;-85
2022/02/20 02:24:48;;;;;;;5.40;2.43;;;3.60;99.90;4.40;96848.00;;;;5121601;27;20439;-87
2022/02/20 02:27:37;;;;;;;3.20;2.33;;;3.50;99.90;4.40;96853.00;;;;5089462;28;20417;-88
2022/02/20 02:30:26;;;;;;;5.83;2.93;;;3.50;99.90;4.60;96847.00;;;;5090044;28;20426;-87
2022/02/20 02:33:27;;;;;;;4.80;2.20;;;3.60;99.90;4.50;96838.00;;;;5089068;28;20432;-87
2022/02/20 02:36:16;;;;;;;3.13;2.63;;;3.60;99.90;4.50;96849.00;;;;5088961;28;20472;-87
2022/02/20 02:39:07;;;;;;;3.37;2.37;;;3.60;99.90;4.50;96852.00;;;;5088794;28;20425;-88
2022/02/20 02:41:56;;;;;;;4.17;2.53;;;3.60;99.90;4.60;96830.00;;;;5088939;28;20431;-87
2022/02/20 02:44:45;;;;;;;8.63;2.53;;;3.50;99.90;4.50;96835.00;;;;5088956;28;20464;-87
2022/02/20 02:47:34;;;;;;;3.87;2.00;;;3.60;99.90;4.40;96845.00;;;;5089241;28;20453;-89
2022/02/20 02:50:23;;;;;;;3.43;2.63;;;3.60;99.90;4.60;96852.00;;;;5087950;28;20425;-87
2022/02/20 02:53:12;;;;;;;3.97;2.23;;;3.60;99.90;4.70;96846.00;;;;5088077;28;20942;-88
2022/02/20 02:56:03;;;;;;;5.00;2.33;;;3.60;99.90;4.70;96849.00;;;;5107654;27;20483;-87
2022/02/20 02:58:52;;;;;;;2.50;2.17;;;3.60;99.90;4.70;96862.00;;;;5130608;27;20416;-86
2022/02/20 03:01:42;;;;;;;3.13;2.20;;;3.70;99.90;4.50;96862.00;;;;5119277;27;20964;-87
2022/02/20 03:04:31;;;;;;;3.87;2.17;;;3.70;99.90;4.30;96869.00;;;;5129286;27;20435;-87
2022/02/20 03:07:20;;;;;;;3.73;2.57;;;3.70;99.90;4.20;96858.00;;;;5129400;27;20963;-88
2022/02/20 03:10:09;;;;;;;3.47;2.27;;;3.60;99.90;3.80;96849.00;;;;5128766;27;20408;-87
2022/02/20 03:12:59;;;;;;;2.70;2.23;;;3.50;99.90;4.00;96846.00;;;;5127573;27;20775;-86
2022/02/20 03:15:48;;;;;;;2.73;2.03;;;3.40;99.90;4.20;96841.00;;;;5128088;27;20490;-88
2022/02/20 03:18:39;;;;;;;3.93;2.20;;;3.30;99.90;4.10;96831.00;;;;5128913;27;20415;-87
2022/02/20 03:21:28;;;;;;;2.47;2.27;;;3.30;99.90;3.80;96842.00;;;;5088625;28;20406;-89
2022/02/20 03:24:17;;;;;;;2.67;2.20;;;3.30;99.90;4.00;96845.00;;;;5087569;28;20433;-86
2022/02/20 03:27:06;;;;;;;2.67;1.93;;;3.20;99.90;4.00;96839.00;;;;5088706;28;20893;-87
2022/02/20 03:29:57;;;;;;;5.77;2.87;;;3.20;99.90;3.80;96842.00;;;;5088854;28;20793;-88
2022/02/20 03:32:45;;;;;;;2.90;2.30;;;3.20;99.90;3.90;96835.00;;;;5086954;28;20436;-87
2022/02/20 03:35:34;;;;;;;4.60;2.17;;;3.10;99.90;3.90;96836.00;;;;5088364;28;20469;-85
2022/02/20 03:38:23;;;;;;;4.47;2.40;;;3.10;99.90;4.00;96842.00;;;;5088484;28;20449;-88
2022/02/20 03:41:12;;;;;;;2.53;2.30;;;3.10;99.90;3.90;96852.00;;;;5087944;28;20433;-87
2022/02/20 03:44:01;;;;;;;7.20;2.77;;;3.00;99.90;3.60;96847.00;;;;5086301;28;20413;-88
2022/02/20 03:46:51;;;;;;;4.63;3.10;;;3.00;99.90;3.20;96835.00;;;;5088477;28;20422;-89
2022/02/20 03:49:40;;;;;;;5.17;3.73;;;2.90;99.90;3.10;96844.00;;;;5088522;28;20469;-88
2022/02/20 03:52:30;;;;;;;7.07;3.77;;;2.80;99.90;3.20;96840.00;;;;5088482;28;20421;-86
2022/02/20 03:55:20;;;;;;;5.40;2.90;;;2.70;99.90;2.80;96836.00;;;;5092648;27;20443;-86
2022/02/20 03:58:09;;;;;;;5.27;2.40;;;2.70;99.90;2.90;96844.00;;;;5128315;27;20431;-86
2022/02/20 04:00:57;;;;;;;4.07;2.80;;;2.70;99.90;3.20;96835.00;;;;5118256;27;20466;-86
2022/02/20 04:03:48;;;;;;;2.43;2.23;;;2.60;99.90;3.40;96847.00;;;;5106143;28;20427;-88
2022/02/20 04:06:37;;;;;;;3.57;2.67;;;2.70;99.90;2.90;96836.00;;;;5107906;28;20419;-87
2022/02/20 04:09:25;;;;;;;8.00;3.63;;;2.70;99.90;3.20;96839.00;;;;5125437;27;20420;-87
2022/02/20 04:12:15;;;;;;;3.37;2.73;;;2.60;99.90;3.60;96835.00;;;;5126870;27;20416;-86
2022/02/20 04:15:06;;;;;;;4.07;2.90;;;2.50;99.90;3.70;96833.00;;;;5128703;27;20445;-87
2022/02/20 04:17:55;;;;;;;2.73;2.27;;;2.70;99.90;3.70;96837.00;;;;5129907;27;20434;-86
2022/02/20 04:20:47;;;;;;;4.53;2.83;;;2.80;99.90;3.30;96836.00;;;;5114584;28;20775;-87
2022/02/20 04:23:36;;;;;;;4.87;3.43;;;2.80;99.90;3.00;96835.00;;;;5108802;28;20429;-86
2022/02/20 04:26:25;;;;;;;9.53;3.47;;;2.70;99.90;3.10;96819.00;;;;5112245;28;20419;-88
2022/02/20 04:29:16;;;;;;;5.17;3.03;;;2.60;99.90;3.50;96821.00;;;;5114031;28;20424;-87
2022/02/20 04:32:07;;;;;;;3.57;2.93;;;2.60;99.90;3.60;96820.00;;;;5112637;28;20969;-89
2022/02/20 04:34:55;;;;;;;4.27;3.17;;;2.60;99.90;3.60;96819.00;;;;5113948;28;20456;-88
2022/02/20 04:37:46;;;;;;;5.60;3.70;;;2.70;99.90;3.50;96814.00;;;;5113635;28;21057;-88
2022/02/20 04:40:35;;;;;;;7.70;2.90;;;2.60;99.90;3.20;96806.00;;;;5114531;28;20435;-87
2022/02/20 04:43:24;;;;;;;3.63;3.27;;;2.60;99.90;2.80;96806.00;;;;5119067;28;20413;-90
2022/02/20 04:46:13;;;;;;;5.30;3.13;;;2.50;99.90;2.70;96816.00;;;;5129791;28;20455;-87
2022/02/20 04:49:02;;;;;;;3.37;2.93;;;2.40;99.90;3.00;96824.00;;;;5127873;28;20432;-87
2022/02/20 04:51:51;;;;;;;7.23;3.37;;;2.40;99.90;3.20;96814.00;;;;5111043;28;20801;-86
2022/02/20 04:54:41;;;;;;;7.80;4.03;;;2.40;99.90;3.50;96820.00;;;;5110207;28;20444;-87
2022/02/20 04:57:33;;;;;;;5.10;3.57;;;2.40;99.90;3.30;96809.00;;;;5090516;28;20461;-87
2022/02/20 05:00:23;;;;;;;3.87;2.90;;;2.50;99.90;2.90;96818.00;;;;5094512;27;20429;-88
2022/02/20 05:03:12;;;;;;;6.33;3.70;;;2.40;99.90;3.00;96821.00;;;;5129672;27;20423;-88
2022/02/20 05:06:01;;;;;;;5.97;3.47;;;2.40;99.90;3.30;96826.00;;;;5132079;27;20707;-87
2022/02/20 05:08:50;;;;;;;5.60;4.43;;;2.40;99.90;3.40;96830.00;;;;5134034;27;20426;-89
2022/02/20 05:11:41;;;;;;;6.47;3.80;;;2.40;99.90;3.40;96840.00;;;;5132769;27;20452;-87
2022/02/20 05:14:29;;;;;;;5.50;4.30;;;2.40;99.90;3.30;96832.00;;;;5131956;27;20440;-86
2022/02/20 05:17:19;;;;;;;5.17;3.03;;;2.40;99.90;3.30;96833.00;;;;5123572;27;20544;-88
2022/02/20 05:20:10;;;;;;;9.90;4.03;;;2.50;99.90;3.40;96835.00;;;;5124916;27;20425;-87
2022/02/20 05:22:59;;;;;;;7.13;4.20;;;2.50;99.90;3.50;96838.00;;;;5110079;28;20417;-86
2022/02/20 05:25:48;;;;;;;4.50;3.27;;;2.50;99.90;3.60;96844.00;;;;5092333;28;20954;-87
2022/02/20 05:28:38;;;;;;;8.27;4.27;;;2.50;99.90;3.20;96833.00;;;;5091897;28;20437;-88
2022/02/20 05:31:28;;;;;;;6.97;3.70;;;2.50;99.90;3.10;96846.00;;;;5091442;28;20922;-87
2022/02/20 05:34:17;;;;;;;7.43;4.07;;;2.50;99.90;3.00;96838.00;;;;5111312;28;20427;-89
2022/02/20 05:37:07;;;;;;;4.60;3.80;;;2.40;99.90;2.80;96830.00;;;;5111005;28;20464;-86
2022/02/20 05:39:56;;;;;;;4.47;4.07;;;2.40;99.90;2.80;96821.00;;;;5111571;28;20421;-88
2022/02/20 05:42:45;;;;;;;6.73;3.00;;;2.30;99.90;3.10;96836.00;;;;5110560;28;20432;-86
2022/02/20 05:45:36;;;;;;;6.00;4.03;;;2.30;99.90;3.00;96832.00;;;;5111743;28;20444;-87
2022/02/20 05:48:25;;;;;;;4.53;3.60;;;2.30;99.90;3.00;96836.00;;;;5113408;28;20417;-86
2022/02/20 05:51:13;;;;;;;6.03;3.63;;;2.20;99.90;2.80;96844.00;;;;5130761;27;20468;-87
2022/02/20 05:54:02;;;;;;;8.33;4.87;;;2.20;99.90;2.40;96829.00;;;;5130581;27;20423;-86
2022/02/20 05:56:51;;;;;;;8.97;5.87;;;2.10;99.90;2.10;96830.00;;;;5112176;28;20464;-85
2022/02/20 05:59:40;;;;;;;6.53;4.50;;;1.90;99.90;2.40;96850.00;;;;5111835;28;20421;-86
2022/02/20 06:02:32;;;;;;;33.80;17.23;;;1.80;99.90;2.10;96854.00;;;;5114072;27;20830;-88
2022/02/20 06:05:21;;;;;;;17.67;11.00;;;1.80;99.90;2.30;96840.00;;;;5096999;27;20462;-88
2022/02/20 06:08:10;;;;;;;8.97;6.90;;;1.70;99.90;2.20;96846.00;;;;5110011;28;20421;-89
2022/02/20 06:10:59;;;;;;;7.27;5.33;;;1.60;99.90;2.20;96844.00;;;;5110525;28;20421;-87
2022/02/20 06:13:48;;;;;;;6.50;4.40;;;1.60;99.90;2.20;96848.00;;;;5110292;28;21007;-87
2022/02/20 06:16:37;;;;;;;6.83;4.93;;;1.60;99.90;2.10;96840.00;;;;5111806;28;20464;-87
2022/02/20 06:19:27;;;;;;;10.20;9.03;;;1.60;99.90;1.90;96829.00;;;;5107356;28;20436;-86
2022/02/20 06:22:16;;;;;;;16.40;10.77;;;1.50;99.90;1.20;96839.00;;;;5104858;27;20434;-88
2022/02/20 06:25:06;;;;;;;12.20;7.40;;;1.30;99.90;1.50;96832.00;;;;5100320;28;20471;-87
2022/02/20 06:27:55;;;;;;;11.30;7.40;;;1.20;99.90;1.90;96858.00;;;;5106301;28;20429;-88
2022/02/20 06:30:44;;;;;;;10.87;6.33;;;1.80;99.90;2.00;96844.00;;;;5089272;28;20443;-87
2022/02/20 06:33:33;;;;;;;8.80;5.83;;;1.20;99.90;2.20;96847.00;;;;5105209;28;20427;-89
2022/02/20 06:36:24;;;;;;;7.13;5.67;;;1.40;99.90;2.30;96858.00;;;;5112115;28;20444;-88
2022/02/20 06:39:13;;;;;;;5.67;4.77;;;1.40;99.90;2.30;96844.00;;;;5113947;28;20417;-88
2022/02/20 06:42:02;;;;;;;7.53;6.47;;;1.50;99.90;1.90;96841.00;;;;5112863;28;20425;-87
2022/02/20 06:44:51;;;;;;;6.77;6.07;;;1.50;99.90;1.50;96842.00;;;;5113653;28;20452;-88
2022/02/20 06:47:40;;;;;;;8.37;6.57;;;2.20;99.90;1.90;96857.00;;;;5115033;28;20432;-84
2022/02/20 06:50:29;;;;;;;7.97;6.07;;;1.40;99.90;2.00;96862.00;;;;5114391;27;20820;-86
2022/02/20 06:53:19;;;;;;;6.17;5.20;;;1.40;99.90;1.80;96862.00;;;;5134340;27;20423;-87
2022/02/20 06:56:08;;;;;;;7.77;6.03;;;1.40;99.90;2.00;96856.00;;;;5133731;27;20452;-87
2022/02/20 06:58:57;;;;;;;8.50;5.40;;;1.40;99.90;2.00;96850.00;;;;5137079;27;20470;-86
2022/02/20 07:01:46;;;;;;;8.60;6.00;;;1.50;99.90;1.90;96857.00;;;;5134269;27;20517;-89
2022/02/20 07:04:35;;;;;;;7.77;5.90;;;1.50;99.90;2.10;96861.00;;;;5106799;27;20444;-87
2022/02/20 07:07:24;;;;;;;7.57;5.83;;;1.50;99.90;2.20;96857.00;;;;5110962;27;20417;-89
2022/02/20 07:10:15;;;;;;;8.93;6.57;;;1.50;99.90;2.30;96856.00;;;;5133427;27;20427;-88
2022/02/20 07:13:04;;;;;;;9.93;6.63;;;1.50;99.90;2.30;96857.00;;;;5131529;27;20424;-89
2022/02/20 07:15:53;;;;;;;7.13;5.83;;;1.60;99.90;2.20;96854.00;;;;5131642;27;20448;-86
2022/02/20 07:18:41;;;;;;;7.20;6.03;;;1.70;99.90;2.20;96857.00;;;;5120474;27;20513;-89
2022/02/20 07:21:31;;;;;;;7.13;5.57;;;1.70;99.90;2.00;96849.00;;;;5122808;27;20430;-89
2022/02/20 07:24:40;;;;;;;9.10;6.10;;;1.70;99.90;1.80;96859.00;;;;5124225;27;20504;-87
2022/02/20 07:27:44;;;;;;;5.87;5.13;;;2.70;99.90;2.00;96843.00;;;;5117661;27;20424;-86
2022/02/20 07:30:33;;;;;;;6.17;5.57;;;1.60;99.90;2.10;96841.00;;;;5113538;28;20423;-88
2022/02/20 07:33:22;;;;;;;11.63;8.30;;;1.60;99.90;1.80;96845.00;;;;5111657;28;20536;-88
2022/02/20 07:36:15;;;;;;;11.17;7.13;;;1.60;99.90;2.10;96839.00;;;;5110722;27;20455;-89
2022/02/20 07:39:10;;;;;;;6.40;5.47;;;1.60;99.90;2.20;96840.00;;;;5102397;28;20973;-88
2022/02/20 07:42:14;;;;;;;7.73;5.57;;;1.70;99.90;2.50;96859.00;;;;5114153;28;20435;-89
2022/02/20 07:48:17;;;;;;;7.87;5.47;;;2.00;99.90;2.70;96859.00;;;;5118525;27;20938;-88
2022/02/20 07:51:06;;;;;;;7.03;5.80;;;2.00;99.90;2.90;96856.00;;;;5128174;27;20425;-88
2022/02/20 07:53:56;;;;;;;10.00;5.27;;;2.20;99.90;2.80;96852.00;;;;5114510;28;20519;-89
2022/02/20 07:56:45;;;;;;;6.90;5.47;;;2.20;99.90;3.20;96860.00;;;;5131585;27;20803;-88
2022/02/20 07:59:34;;;;;;;5.40;3.77;;;2.30;99.90;3.80;96857.00;;;;5108041;28;20438;-88
2022/02/20 08:02:24;;;;;;;9.23;4.87;;;2.50;99.90;3.70;96875.00;;;;5108218;28;20428;-87
2022/02/20 08:05:14;;;;;;;6.97;4.50;;;2.80;99.90;4.30;96862.00;;;;5100988;27;20461;-88
2022/02/20 08:08:02;;;;;;;7.90;5.07;;;3.00;99.90;4.30;96855.00;;;;5124896;27;20427;-88
2022/02/20 08:10:51;;;;;;;5.47;3.60;;;3.20;99.90;4.50;96856.00;;;;5115575;28;20440;-87
2022/02/20 08:13:40;;;;;;;6.87;5.03;;;3.40;99.90;4.90;96865.00;;;;5125371;28;20435;-89
2022/02/20 08:16:30;;;;;;;11.07;4.53;;;3.70;99.90;5.20;96845.00;;;;5133615;28;20479;-88
2022/02/20 08:19:20;;;;;;;9.83;3.77;;;3.90;99.90;5.10;96860.00;;;;5102850;28;20836;-88
2022/02/20 08:22:09;;;;;;;8.37;3.27;;;4.20;99.90;5.20;96855.00;;;;5117093;28;20777;-88
2022/02/20 08:24:58;;;;;;;6.23;4.63;;;4.30;99.90;5.50;96850.00;;;;5112808;28;20456;-88
2022/02/20 08:27:47;;;;;;;5.30;4.03;;;4.50;99.90;5.90;96862.00;;;;5100269;28;20837;-88
2022/02/20 08:30:36;;;;;;;4.53;3.27;;;4.60;99.90;5.90;96879.00;;;;5109366;28;20417;-87
2022/02/20 08:33:27;;;;;;;6.13;3.47;;;4.80;99.90;6.10;96865.00;;;;5107355;28;20421;-87
2022/02/20 08:36:32;;;;;;;9.90;4.87;;;5.00;99.90;6.20;96866.00;;;;5108250;28;20199;-86
2022/02/20 08:39:20;;;;;;;4.90;3.77;;;5.10;99.90;6.60;96867.00;;;;5109091;28;20230;-87
2022/02/20 08:42:10;;;;;;;8.40;4.03;;;5.30;99.90;7.30;96869.00;;;;5108153;28;20203;-87
2022/02/20 08:44:58;;;;;;;10.10;3.90;;;5.60;99.90;7.60;96885.00;;;;5108108;28;20211;-87
2022/02/20 08:47:48;;;;;;;7.33;4.27;;;5.80;99.90;7.70;96871.00;;;;5097182;28;20249;-87
2022/02/20 08:50:38;;;;;;;9.07;4.50;;;6.00;99.90;7.70;96885.00;;;;5102601;28;20515;-86
2022/02/20 08:53:30;;;;;;;10.50;5.03;;;6.20;99.90;8.10;96880.00;;;;5105831;28;20195;-87
2022/02/20 08:56:20;;;;;;;8.13;5.00;;;6.40;99.90;8.20;96886.00;;;;5108491;28;20215;-86
2022/02/20 08:59:09;;;;;;;11.13;4.90;;;6.50;99.90;8.10;96879.00;;;;5104782;28;20210;-87
2022/02/20 09:01:58;;;;;;;5.87;3.87;;;6.60;99.90;8.20;96887.00;;;;5096143;28;20207;-86
2022/02/20 09:04:48;;;;;;;9.50;4.70;;;6.70;99.90;8.30;96891.00;;;;5104945;28;20236;-87
2022/02/20 09:07:36;;;;;;;8.77;4.10;;;6.80;99.90;8.10;96882.00;;;;5091985;27;20196;-86
2022/02/20 09:10:27;;;;;;;7.93;4.50;;;6.80;99.90;8.30;96890.00;;;;5125586;27;20709;-87
2022/02/20 09:13:16;;;;;;;8.10;4.67;;;6.90;99.90;8.40;96878.00;;;;5109411;28;20187;-87
2022/02/20 09:16:05;;;;;;;6.70;4.77;;;6.90;99.90;8.40;96880.00;;;;5111953;28;20218;-86
2022/02/20 09:18:56;;;;;;;4.87;3.80;;;7.00;99.90;8.60;96873.00;;;;5107291;28;20613;-86
2022/02/20 09:21:45;;;;;;;7.00;4.77;;;7.10;99.90;8.70;96870.00;;;;5104923;28;20214;-85
2022/02/20 09:24:34;;;;;;;11.47;5.17;;;7.10;99.90;8.50;96877.00;;;;5114069;27;20210;-88
2022/02/20 09:27:25;;;;;;;8.10;5.33;;;7.20;99.90;8.50;96867.00;;;;5114873;27;20217;-87
2022/02/20 09:30:14;;;;;;;7.53;4.43;;;7.20;99.90;8.40;96870.00;;;;5104629;27;20210;-87
2022/02/20 09:33:03;;;;;;;4.90;4.47;;;7.20;99.90;8.30;96867.00;;;;5091619;28;20204;-87
2022/02/20 09:35:52;;;;;;;7.20;5.07;;;7.20;99.90;8.20;96861.00;;;;5097275;28;20226;-90
2022/02/20 09:38:41;;;;;;;7.83;5.60;;;7.20;99.90;8.30;96860.00;;;;5115011;27;20218;-86
2022/02/20 09:41:32;;;;;;;7.53;5.00;;;7.20;99.90;8.20;96866.00;;;;5112623;27;20203;-87
2022/02/20 09:44:22;;;;;;;7.03;4.50;;;7.20;99.90;8.20;96863.00;;;;5102669;28;20229;-88
2022/02/20 09:47:12;;;;;;;10.67;6.30;;;7.20;99.90;8.30;96872.00;;;;5100430;28;20211;-87
2022/02/20 09:50:04;;;;;;;8.23;4.83;;;7.30;99.90;8.60;96852.00;;;;5102122;28;20191;-87
2022/02/20 09:52:53;;;;;;;6.13;5.27;;;7.30;99.90;8.90;96868.00;;;;5103865;28;20210;-87
2022/02/20 09:55:46;;;;;;;11.67;6.07;;;7.40;99.90;8.90;96868.00;;;;5109847;27;20596;-86
2022/02/20 09:58:35;;;;;;;12.63;6.30;;;7.40;99.90;8.90;96858.00;;;;5130649;27;20575;-87
2022/02/20 10:01:25;;;;;;;10.37;6.27;;;7.50;99.90;8.90;96869.00;;;;5121055;27;20194;-85
2022/02/20 10:04:14;;;;;;;13.00;6.90;;;7.50;99.90;8.80;96873.00;;;;5117429;27;20198;-85
2022/02/20 10:07:04;;;;;;;8.83;5.67;;;7.60;99.90;8.70;96857.00;;;;5109556;28;20348;-85
2022/02/20 10:09:53;;;;;;;6.70;6.00;;;7.50;99.90;8.90;96867.00;;;;5090646;28;20196;-88
2022/02/20 10:12:42;;;;;;;7.03;5.87;;;7.60;99.90;8.90;96869.00;;;;5089956;28;20205;-87
2022/02/20 10:15:32;;;;;;;9.43;6.67;;;7.60;99.90;9.10;96871.00;;;;5092578;28;20223;-87
2022/02/20 10:18:28;;;;;;;7.13;5.80;;;7.60;99.90;9.00;96877.00;;;;5091842;28;20206;-87
2022/02/20 10:21:23;;;;;;;7.10;6.10;;;7.70;99.90;9.20;96868.00;;;;5090753;28;20211;-86
2022/02/20 10:24:14;;;;;;;8.43;5.47;;;7.70;99.90;9.20;96871.00;;;;5106826;27;20202;-86
2022/02/20 10:27:09;;;;;;;14.47;5.43;;;7.80;99.90;9.40;96866.00;;;;5092731;28;20203;-87
2022/02/20 10:30:17;;;;;;;9.73;5.33;;;7.90;99.90;9.50;96873.00;;;;5099928;28;20198;-87
2022/02/20 10:33:10;;;;;;;7.13;5.53;;;7.90;99.90;9.50;96866.00;;;;5100393;27;20623;-87
2022/02/20 10:36:02;;;;;;;7.53;5.67;;;8.10;99.90;9.00;96861.00;;;;5107572;27;20221;-86
2022/02/20 10:38:51;;;;;;;8.30;5.50;;;8.10;99.90;9.40;96859.00;;;;5097451;28;20225;-87
2022/02/20 10:41:39;;;;;;;5.73;4.57;;;8.10;99.90;10.00;96852.00;;;;5088479;28;20579;-87
2022/02/20 10:44:29;;;;;;;7.10;5.83;;;8.20;99.90;10.30;96858.00;;;;5105218;27;20231;-87
2022/02/20 10:47:18;;;;;;;9.23;6.30;;;8.40;99.90;10.40;96846.00;;;;5128399;27;20606;-86
2022/02/20 10:50:16;;;;;;;6.93;6.07;;;8.60;99.90;10.40;96833.00;;;;5103331;27;20198;-86
2022/02/20 10:53:10;;;;;;;11.73;6.60;;;8.80;99.90;10.70;96830.00;;;;5105352;27;20202;-86
2022/02/20 10:55:59;;;;;;;10.10;5.67;;;8.90;99.90;11.50;96834.00;;;;5090935;27;20451;-84
2022/02/20 10:58:51;;;;;;;11.57;5.53;;;9.20;99.90;11.70;96845.00;;;;5118474;27;20213;-85
2022/02/20 11:01:40;;;;;;;9.33;5.67;;;9.60;99.90;11.90;96836.00;;;;5127193;27;20197;-86
2022/02/20 11:04:29;;;;;;;11.37;5.93;;;9.90;99.90;12.50;96830.00;;;;5114001;28;20218;-84
2022/02/20 11:07:18;;;;;;;9.93;6.50;;;10.30;99.90;12.50;96833.00;;;;5097168;28;20199;-85
2022/02/20 11:10:10;;;;;;;8.03;5.83;;;10.70;99.90;12.20;96836.00;;;;5088472;28;20210;-84
2022/02/20 11:13:00;;;;;;;10.10;5.43;;;10.90;97.70;12.70;96832.00;;;;5102527;28;20568;-84
2022/02/20 11:15:51;;;;;;;10.67;6.50;;;11.10;97.10;13.10;96840.00;;;;5107976;28;20241;-85
2022/02/20 11:18:42;;;;;;;7.57;5.50;;;11.40;96.40;14.20;96823.00;;;;5089774;28;20210;-85
2022/02/20 11:21:35;;;;;;;7.63;6.10;;;11.70;96.40;14.40;96810.00;;;;5091210;28;20206;-85
2022/02/20 11:24:27;;;;;;;8.27;6.63;;;12.20;94.30;14.20;96827.00;;;;5099469;27;20613;-85
2022/02/20 11:27:20;;;;;;;11.30;5.53;;;12.50;92.40;14.40;96833.00;;;;5108181;28;20202;-85
2022/02/20 11:30:13;;;;;;;9.57;6.77;;;12.70;92.20;14.70;96819.00;;;;5107956;28;20199;-86
2022/02/20 11:33:04;;;;;;;11.70;7.00;;;12.90;91.00;14.90;96838.00;;;;5101116;27;20347;-85
2022/02/20 11:35:53;;;;;;;14.53;6.00;;;13.10;90.20;14.10;96834.00;;;;5122021;27;20213;-85
2022/02/20 11:39:06;;;;;;;8.37;5.50;;;13.00;87.40;14.40;96808.00;;;;5108829;27;20202;-85
2022/02/20 11:42:11;;;;;;;10.17;6.03;;;12.90;88.20;13.50;96815.00;;;;5100264;28;20206;-86
2022/02/20 11:45:08;;;;;;;7.67;5.53;;;12.90;86.80;13.60;96821.00;;;;5105927;28;20495;-85
2022/02/20 11:48:03;;;;;;;7.47;5.50;;;12.80;85.50;13.30;96820.00;;;;5105822;28;20567;-85
2022/02/20 11:50:52;;;;;;;9.97;6.67;;;12.40;85.00;13.10;96808.00;;;;5099607;28;20190;-85
2022/02/20 11:53:41;;;;;;;10.17;6.07;;;12.20;87.50;12.80;96808.00;;;;5107182;28;20198;-85
2022/02/20 11:56:30;;;;;;;10.47;6.43;;;12.00;88.10;12.50;96795.00;;;;5107917;27;20199;-85
2022/02/20 11:59:19;;;;;;;8.57;5.87;;;11.80;88.70;12.90;96791.00;;;;5119930;27;20233;-85
2022/02/20 12:02:12;;;;;;;7.20;5.57;;;11.60;90.00;14.10;96791.00;;;;5111934;28;20198;-84
2022/02/20 12:05:06;;;;;;;7.63;6.53;;;11.80;91.10;14.20;96791.00;;;;5108504;28;20214;-86
2022/02/20 12:07:55;;;;;;;7.70;6.33;;;12.10;91.30;13.90;96781.00;;;;5112141;28;20542;-85
2022/02/20 12:10:44;;;;;;;7.40;5.90;;;12.30;90.60;13.90;96786.00;;;;5112055;28;20201;-85
2022/02/20 12:13:33;;;;;;;7.77;5.90;;;12.40;90.60;13.30;96789.00;;;;5112763;28;20661;-85
2022/02/20 12:16:25;;;;;;;8.20;6.87;;;12.30;90.20;13.80;96785.00;;;;5107789;28;20361;-85
2022/02/20 12:19:25;;;;;;;7.03;5.50;;;12.30;90.50;13.80;96791.00;;;;5109544;28;20190;-84
2022/02/20 12:22:25;;;;;;;7.30;5.30;;;12.30;90.70;13.20;96782.00;;;;5108135;28;20693;-85
2022/02/20 12:25:18;;;;;;;8.57;6.27;;;12.20;90.00;13.40;96765.00;;;;5109556;28;20219;-85
2022/02/20 12:28:11;;;;;;;6.27;5.40;;;12.20;90.30;14.10;96753.00;;;;5122136;28;20216;-85
2022/02/20 12:31:09;;;;;;;9.07;6.57;;;12.40;90.10;14.70;96777.00;;;;5131130;28;20197;-85
2022/02/20 12:33:58;;;;;;;8.70;5.03;;;12.60;90.30;14.40;96783.00;;;;5102855;28;20199;-85
2022/02/20 12:36:48;;;;;;;9.90;6.13;;;12.80;88.80;14.50;96774.00;;;;5108041;28;20187;-86
2022/02/20 12:39:38;;;;;;;11.33;6.40;;;12.90;88.40;14.70;96772.00;;;;5107836;28;20202;-85
2022/02/20 12:42:29;;;;;;;9.17;6.00;;;13.00;87.60;15.30;96759.00;;;;5111304;28;20196;-84
2022/02/20 12:45:21;;;;;;;10.50;5.87;;;13.20;88.40;15.40;96770.00;;;;5121491;28;20230;-87
2022/02/20 12:48:14;;;;;;;8.67;5.77;;;13.50;87.90;15.10;96771.00;;;;5114295;28;20194;-87
2022/02/20 12:51:03;;;;;;;8.77;5.47;;;13.70;85.30;14.60;96772.00;;;;5109023;28;20607;-87
2022/02/20 12:53:55;;;;;;;7.80;5.50;;;13.90;84.10;14.20;96778.00;;;;5111382;28;20237;-86